Des Moines, Iowa
Current Conditions -  °F | °C
As of 1:54 AM on Friday 28 Nov 2014 (Local Time) from KDSM Reporting Station
Overcast Overcast  
Wind Chill:   Ceiling: 11000
Heat Index: 18°   Visibility: 10mi
Dew Point: 10°   Wind: 15mph
Humidity: 71%   Direction: 150°SSE
Pressure: 30.16"   Gusts: NA
Location:  41.59°N, 93.61°W
Report Text: KDSM 280754Z 15013KT 10SM OVC110 M08/M12 A3016 RMK AO2 SLP230 T10781122
Loading
Personal Weather Stations






























Interactive Weather Map New forecast layout! Learn more

10-Day Weather Forecast

Advertisements
Track Severe Weather on mobile